createdAt,value
2023-04-25T00:00:15.022Z,81.58
2023-04-25T00:02:42.598Z,81.43
2023-04-25T00:05:10.228Z,81.47
2023-04-25T00:07:36.983Z,81.75
2023-04-25T00:10:04.269Z,81.59
2023-04-25T00:12:30.823Z,81.68
2023-04-25T00:15:00.993Z,81.75
2023-04-25T00:17:27.939Z,82.10
2023-04-25T00:19:54.651Z,82.17
2023-04-25T00:22:21.893Z,82.26
2023-04-25T00:24:48.502Z,82.78
2023-04-25T00:27:15.038Z,82.73
2023-04-25T00:29:41.614Z,82.73
2023-04-25T00:32:08.190Z,82.35
2023-04-25T00:34:34.760Z,82.61
2023-04-25T00:37:03.142Z,82.48
2023-04-25T00:39:29.793Z,82.48
2023-04-25T00:41:56.620Z,82.58
2023-04-25T00:44:23.478Z,82.91
2023-04-25T00:46:53.100Z,82.95
2023-04-25T00:49:19.674Z,82.51
2023-04-25T00:51:46.355Z,82.41
2023-04-25T00:54:16.428Z,82.51
2023-04-25T00:56:43.285Z,82.40
2023-04-25T00:59:10.875Z,82.49
2023-04-25T01:01:38.799Z,82.10
2023-04-25T01:04:05.830Z,82.45
2023-04-25T01:06:32.981Z,82.30
2023-04-25T01:09:00.501Z,82.00
2023-04-25T01:11:27.089Z,82.23
2023-04-25T01:13:53.735Z,82.41
2023-04-25T01:16:20.281Z,82.30
2023-04-25T01:18:47.742Z,82.17
2023-04-25T01:21:14.420Z,82.17
2023-04-25T01:23:42.315Z,82.14
2023-04-25T01:26:11.242Z,82.11
2023-04-25T01:28:38.431Z,81.85
2023-04-25T01:31:06.801Z,81.58
2023-04-25T01:33:33.703Z,81.44
2023-04-25T01:36:00.283Z,81.95
2023-04-25T01:38:27.006Z,82.07
2023-04-25T01:40:55.020Z,82.16
2023-04-25T01:43:21.674Z,82.45
2023-04-25T01:45:49.494Z,82.32
2023-04-25T01:48:16.330Z,82.53
2023-04-25T01:50:44.026Z,82.90
2023-04-25T01:53:12.156Z,82.63
2023-04-25T01:55:38.789Z,82.73
2023-04-25T01:58:10.340Z,82.97
2023-04-25T02:00:39.863Z,83.20
2023-04-25T02:03:07.464Z,82.96
2023-04-25T02:05:39.151Z,83.06
2023-04-25T02:08:10.366Z,82.85
2023-04-25T02:10:37.459Z,82.84
2023-04-25T02:13:05.418Z,82.82
2023-04-25T02:15:32.234Z,83.07
2023-04-25T02:17:59.046Z,83.02
2023-04-25T02:20:26.090Z,82.88
2023-04-25T02:22:53.038Z,83.13
2023-04-25T02:25:21.072Z,82.98
2023-04-25T02:27:48.856Z,83.30
2023-04-25T02:30:16.271Z,83.35
2023-04-25T02:32:42.823Z,83.29
2023-04-25T02:35:09.811Z,83.29
2023-04-25T02:37:38.238Z,83.68
2023-04-25T02:40:05.485Z,83.97
2023-04-25T02:42:32.213Z,84.12
2023-04-25T02:44:58.955Z,83.67
2023-04-25T02:47:25.592Z,84.10
2023-04-25T02:49:52.234Z,83.72
2023-04-25T02:52:18.788Z,83.83
2023-04-25T02:54:45.325Z,83.98
2023-04-25T02:57:11.926Z,84.01
2023-04-25T02:59:38.456Z,83.77
2023-04-25T03:02:05.015Z,83.57
2023-04-25T03:04:31.760Z,83.94
2023-04-25T03:06:58.339Z,84.06
2023-04-25T03:09:24.912Z,83.80
2023-04-25T03:11:51.499Z,83.69
2023-04-25T03:14:18.044Z,84.27
2023-04-25T03:16:44.613Z,84.16
2023-04-25T03:19:11.237Z,84.34
2023-04-25T03:21:37.902Z,84.22
2023-04-25T03:24:06.878Z,84.22
2023-04-25T03:26:33.473Z,84.45
2023-04-25T03:29:00.004Z,84.51
2023-04-25T03:31:26.929Z,84.62
2023-04-25T03:33:53.680Z,84.61
2023-04-25T03:36:20.436Z,84.39
2023-04-25T03:38:47.519Z,84.41
2023-04-25T03:41:14.034Z,84.04
2023-04-25T03:43:40.648Z,84.45
2023-04-25T03:46:07.233Z,84.61
2023-04-25T03:48:33.814Z,84.23
2023-04-25T03:51:00.387Z,84.39
2023-04-25T03:53:27.054Z,84.21
2023-04-25T03:55:53.620Z,84.50
2023-04-25T03:58:20.264Z,84.22
2023-04-25T04:00:46.949Z,84.37
2023-04-25T04:03:13.737Z,84.66
2023-04-25T04:05:41.677Z,84.72
2023-04-25T04:08:08.386Z,84.55
2023-04-25T04:10:34.974Z,84.53
2023-04-25T04:13:01.492Z,84.79
2023-04-25T04:15:28.304Z,84.77
2023-04-25T04:17:55.860Z,84.64
2023-04-25T04:20:22.609Z,84.55
2023-04-25T04:22:49.208Z,84.57
2023-04-25T04:25:15.896Z,84.64
2023-04-25T04:27:42.539Z,84.65
2023-04-25T04:30:09.522Z,84.45
2023-04-25T04:32:38.685Z,84.75
2023-04-25T04:35:07.574Z,84.62
2023-04-25T04:37:34.578Z,84.70
2023-04-25T04:40:06.811Z,84.54
2023-04-25T04:42:33.627Z,83.89
2023-04-25T04:45:02.632Z,83.93
2023-04-25T04:47:32.191Z,83.95
2023-04-25T04:49:58.987Z,83.79
2023-04-25T04:52:25.659Z,83.68
2023-04-25T04:54:52.190Z,83.98
2023-04-25T04:57:18.786Z,84.51
2023-04-25T04:59:45.513Z,84.74
2023-04-25T05:02:12.086Z,83.48
2023-04-25T05:04:38.848Z,82.23
2023-04-25T05:07:05.491Z,80.81
2023-04-25T05:09:32.059Z,79.97
2023-04-25T05:11:58.624Z,79.74
2023-04-25T05:14:25.227Z,78.51
2023-04-25T05:16:51.841Z,78.28
2023-04-25T05:19:18.572Z,78.91
2023-04-25T05:21:45.100Z,79.43
2023-04-25T05:24:11.768Z,78.43
2023-04-25T05:26:38.769Z,77.00
2023-04-25T05:29:06.537Z,75.51
2023-04-25T05:31:33.569Z,74.99
2023-04-25T05:34:00.343Z,75.34
2023-04-25T05:39:11.635Z,74.48
2023-04-25T05:41:38.187Z,73.63
2023-04-25T05:44:04.727Z,71.84
2023-04-25T05:46:31.332Z,72.40
2023-04-25T05:48:57.969Z,73.31
2023-04-25T05:51:24.621Z,74.26
2023-04-25T05:53:51.583Z,74.71
2023-04-25T05:56:18.477Z,75.86
2023-04-25T05:58:45.297Z,76.34
2023-04-25T06:01:11.918Z,77.55
2023-04-25T06:03:39.516Z,77.85
2023-04-25T06:06:06.709Z,78.00
2023-04-25T06:08:33.402Z,78.29
2023-04-25T06:10:59.942Z,78.35
2023-04-25T06:13:26.573Z,78.54
2023-04-25T06:15:53.157Z,78.80
2023-04-25T06:18:20.345Z,78.72
2023-04-25T06:20:46.937Z,78.75
2023-04-25T06:23:13.816Z,78.54
2023-04-25T06:25:40.482Z,78.36
2023-04-25T06:28:07.014Z,78.56
2023-04-25T06:30:33.572Z,78.46
2023-04-25T06:33:00.212Z,78.26
2023-04-25T06:35:26.788Z,78.94
2023-04-25T06:37:53.628Z,78.19
2023-04-25T06:40:20.339Z,77.47
2023-04-25T06:42:46.869Z,77.53
2023-04-25T06:45:13.448Z,77.53
2023-04-25T06:47:40.022Z,77.48
2023-04-25T06:50:07.161Z,76.45
2023-04-25T06:52:34.079Z,75.80
2023-04-25T06:55:00.681Z,76.08
2023-04-25T06:57:27.341Z,75.09
2023-04-25T06:59:53.852Z,74.92
2023-04-25T07:02:22.197Z,74.66
2023-04-25T07:04:49.414Z,74.26
2023-04-25T07:07:18.193Z,74.25
2023-04-25T07:09:44.807Z,73.63
2023-04-25T07:12:11.347Z,72.68
2023-04-25T07:14:37.948Z,71.74
2023-04-25T07:17:04.703Z,71.61
2023-04-25T07:19:31.301Z,72.11
2023-04-25T07:21:57.834Z,72.20
2023-04-25T07:24:24.461Z,73.06
2023-04-25T07:26:51.190Z,71.42
2023-04-25T07:29:18.097Z,71.05
2023-04-25T07:31:44.777Z,72.22
2023-04-25T07:34:11.367Z,72.76
2023-04-25T07:36:37.915Z,71.56
2023-04-25T07:39:04.592Z,71.40
2023-04-25T07:41:31.323Z,71.59
2023-04-25T07:43:57.869Z,70.59
2023-04-25T07:46:24.625Z,70.88
2023-04-25T07:48:51.476Z,71.68
2023-04-25T07:51:20.843Z,71.90
2023-04-25T07:53:49.537Z,71.59
2023-04-25T07:56:17.138Z,70.71
2023-04-25T07:58:43.835Z,70.63
2023-04-25T08:01:10.405Z,71.06
2023-04-25T08:03:37.238Z,71.33
2023-04-25T08:06:07.664Z,71.64
2023-04-25T08:08:34.866Z,70.62
2023-04-25T08:11:01.409Z,70.13
2023-04-25T08:13:27.927Z,69.10
2023-04-25T08:15:54.632Z,69.76
2023-04-25T08:18:21.595Z,70.18
2023-04-25T08:20:48.190Z,70.50
2023-04-25T08:23:15.354Z,69.56
2023-04-25T08:25:42.007Z,70.03
2023-04-25T08:28:08.514Z,70.14
2023-04-25T08:30:35.085Z,69.95
2023-04-25T08:33:01.675Z,69.82
2023-04-25T08:35:28.314Z,70.25
2023-04-25T08:37:54.929Z,69.25
2023-04-25T08:40:27.208Z,66.28
2023-04-25T08:42:55.407Z,65.36
2023-04-25T08:45:22.258Z,66.22
2023-04-25T08:47:49.831Z,62.11
2023-04-25T08:50:17.823Z,63.88
2023-04-25T08:52:47.134Z,60.13
2023-04-25T08:55:15.108Z,60.14
2023-04-25T08:57:45.760Z,60.71
2023-04-25T09:00:13.810Z,58.56
2023-04-25T09:02:41.160Z,59.90
2023-04-25T09:05:10.790Z,59.43
2023-04-25T09:07:37.453Z,59.66
2023-04-25T09:10:04.524Z,58.74
2023-04-25T09:12:31.784Z,61.80
2023-04-25T09:15:12.333Z,62.02
2023-04-25T09:17:42.508Z,61.87
2023-04-25T09:20:11.614Z,62.98
2023-04-25T09:22:38.773Z,63.60
2023-04-25T09:25:10.878Z,64.76
2023-04-25T09:27:37.396Z,65.20
2023-04-25T09:30:04.351Z,65.73
2023-04-25T09:32:31.007Z,66.71
2023-04-25T09:34:58.516Z,67.24
2023-04-25T09:37:27.108Z,67.71
2023-04-25T09:39:57.866Z,68.14
2023-04-25T09:42:26.344Z,68.38
2023-04-25T09:44:54.672Z,68.90
2023-04-25T09:47:24.451Z,69.39
2023-04-25T09:49:52.586Z,69.36
2023-04-25T09:52:23.254Z,69.84
2023-04-25T09:54:52.083Z,70.30
2023-04-25T09:57:25.996Z,70.99
2023-04-25T09:59:54.429Z,69.96
2023-04-25T10:02:23.359Z,70.44
2023-04-25T10:04:53.821Z,71.48
2023-04-25T10:07:22.371Z,71.39
2023-04-25T10:09:52.863Z,70.25
2023-04-25T10:12:19.462Z,70.77
2023-04-25T10:14:47.524Z,69.53
2023-04-25T10:17:15.125Z,68.43
2023-04-25T10:19:41.991Z,68.76
2023-04-25T10:22:15.749Z,68.54
2023-04-25T10:24:42.937Z,68.58
2023-04-25T10:27:09.895Z,68.44
2023-04-25T10:29:36.880Z,67.36
2023-04-25T10:32:03.706Z,67.57
2023-04-25T10:34:44.678Z,67.75
2023-04-25T10:37:12.312Z,66.43
2023-04-25T10:39:43.014Z,66.26
2023-04-25T10:42:09.680Z,66.56
2023-04-25T10:44:38.568Z,66.07
2023-04-25T10:47:09.158Z,66.86
2023-04-25T10:49:38.587Z,67.63
2023-04-25T10:52:21.359Z,66.63
2023-04-25T10:54:58.730Z,65.84
2023-04-25T10:57:42.502Z,64.64
2023-04-25T11:00:12.793Z,64.09
2023-04-25T11:02:44.242Z,64.41
2023-04-25T11:05:11.413Z,64.43
2023-04-25T11:08:07.550Z,64.49
2023-04-25T11:10:36.657Z,65.06
2023-04-25T11:13:03.493Z,63.63
2023-04-25T11:15:30.139Z,63.19
2023-04-25T11:17:56.882Z,62.81
2023-04-25T11:20:27.146Z,62.87
2023-04-25T11:22:54.173Z,62.75
2023-04-25T11:25:21.199Z,62.15
2023-04-25T11:27:52.321Z,61.67
2023-04-25T11:30:20.157Z,61.21
2023-04-25T11:32:46.999Z,61.53
2023-04-25T11:35:14.452Z,62.11
2023-04-25T11:37:42.041Z,62.63
2023-04-25T11:40:10.677Z,63.36
2023-04-25T11:42:45.368Z,62.98
2023-04-25T11:45:12.961Z,62.92
2023-04-25T11:47:39.563Z,63.16
2023-04-25T11:50:08.844Z,62.46
2023-04-25T11:52:42.643Z,61.31
2023-04-25T11:55:11.608Z,59.60
2023-04-25T11:57:42.664Z,59.53
2023-04-25T12:00:22.784Z,59.82
2023-04-25T12:02:54.249Z,60.29
2023-04-25T12:07:54.335Z,59.48
2023-04-25T12:10:21.451Z,59.50
2023-04-25T12:12:49.219Z,58.08
2023-04-25T12:15:20.455Z,55.02
2023-04-25T12:17:48.691Z,54.05
2023-04-25T12:20:18.287Z,54.88
2023-04-25T12:22:47.770Z,52.74
2023-04-25T12:25:43.177Z,52.02
2023-04-25T12:28:13.153Z,52.62
2023-04-25T12:30:53.366Z,51.54
2023-04-25T12:33:19.921Z,51.01
2023-04-25T12:35:46.687Z,53.19
2023-04-25T12:38:31.451Z,53.35
2023-04-25T12:40:59.258Z,54.27
2023-04-25T12:43:26.024Z,53.67
2023-04-25T12:45:54.281Z,52.17
2023-04-25T12:48:21.466Z,53.11
2023-04-25T12:50:50.205Z,52.45
2023-04-25T12:53:17.924Z,53.16
2023-04-25T12:55:47.002Z,52.68
2023-04-25T12:58:14.780Z,53.21
2023-04-25T13:00:41.357Z,54.07
2023-04-25T13:03:08.293Z,53.86
2023-04-25T13:05:35.054Z,52.65
2023-04-25T13:08:01.597Z,52.07
2023-04-25T13:10:28.124Z,51.57
2023-04-25T13:12:54.646Z,52.14
2023-04-25T13:15:21.494Z,53.07
2023-04-25T13:17:48.101Z,53.05
2023-04-25T13:20:15.975Z,53.23
2023-04-25T13:22:43.346Z,53.09
2023-04-25T13:25:10.047Z,52.07
2023-04-25T13:27:40.188Z,52.96
2023-04-25T13:30:10.534Z,51.55
2023-04-25T13:32:38.538Z,51.17
2023-04-25T13:35:09.155Z,50.02
2023-04-25T13:37:37.487Z,50.67
2023-04-25T13:40:07.385Z,50.16
2023-04-25T13:42:33.902Z,50.28
2023-04-25T13:45:00.460Z,50.51
2023-04-25T13:47:28.030Z,51.07
2023-04-25T13:49:55.458Z,51.15
2023-04-25T13:52:22.127Z,51.34
2023-04-25T13:54:48.646Z,51.77
2023-04-25T13:57:15.238Z,51.32
2023-04-25T13:59:41.925Z,52.13
2023-04-25T14:02:08.611Z,53.33
2023-04-25T14:04:35.223Z,52.32
2023-04-25T14:07:03.239Z,53.57
2023-04-25T14:09:30.528Z,52.61
2023-04-25T14:11:57.557Z,52.92
2023-04-25T14:14:24.903Z,52.67
2023-04-25T14:16:54.712Z,51.89
2023-04-25T14:19:22.400Z,52.27
2023-04-25T14:21:49.151Z,51.97
2023-04-25T14:24:15.867Z,51.86
2023-04-25T14:26:43.458Z,52.23
2023-04-25T14:29:12.655Z,52.05
2023-04-25T14:31:41.410Z,52.60
2023-04-25T14:34:08.305Z,51.31
2023-04-25T14:36:35.394Z,51.72
2023-04-25T14:39:02.110Z,51.63
2023-04-25T14:41:28.863Z,51.46
2023-04-25T14:43:56.672Z,52.06
2023-04-25T14:49:08.368Z,49.73
2023-04-25T14:51:34.939Z,49.68
2023-04-25T14:54:01.501Z,49.67
2023-04-25T14:56:28.076Z,49.38
2023-04-25T14:58:54.659Z,48.96
2023-04-25T15:01:21.916Z,47.98
2023-04-25T15:03:49.516Z,49.22
2023-04-25T15:06:16.239Z,49.47
2023-04-25T15:08:42.861Z,48.22
2023-04-25T15:11:09.536Z,48.36
2023-04-25T15:13:36.039Z,48.65
2023-04-25T15:16:02.647Z,49.45
2023-04-25T15:18:29.240Z,48.38
2023-04-25T15:20:56.069Z,47.79
2023-04-25T15:23:22.908Z,47.65
2023-04-25T15:25:51.699Z,47.90
2023-04-25T15:28:18.326Z,48.15
2023-04-25T15:30:45.038Z,48.24
2023-04-25T15:33:11.874Z,48.04
2023-04-25T15:35:38.517Z,46.85
2023-04-25T15:38:05.347Z,45.66
2023-04-25T15:40:32.135Z,47.00
2023-04-25T15:42:59.734Z,47.29
2023-04-25T15:45:26.981Z,47.30
2023-04-25T15:47:55.826Z,46.29
2023-04-25T15:50:23.361Z,47.27
2023-04-25T15:52:51.246Z,46.08
2023-04-25T15:55:19.629Z,46.03
2023-04-25T15:57:46.416Z,46.51
2023-04-25T16:00:15.171Z,47.22
2023-04-25T16:02:43.203Z,46.46
2023-04-25T16:05:11.491Z,47.68
2023-04-25T16:07:39.696Z,46.77
2023-04-25T16:10:06.679Z,48.04
2023-04-25T16:12:33.297Z,47.54
2023-04-25T16:14:59.869Z,47.42
2023-04-25T16:17:29.625Z,48.55
2023-04-25T16:19:56.973Z,47.77
2023-04-25T16:22:23.633Z,48.27
2023-04-25T16:24:50.826Z,47.60
2023-04-25T16:27:17.445Z,47.55
2023-04-25T16:29:44.078Z,47.84
2023-04-25T16:32:11.202Z,47.87
2023-04-25T16:34:37.771Z,46.52
2023-04-25T16:37:04.565Z,46.20
2023-04-25T16:39:31.101Z,46.36
2023-04-25T16:41:57.674Z,46.53
2023-04-25T16:44:24.211Z,46.06
2023-04-25T16:46:50.806Z,45.65
2023-04-25T16:49:17.437Z,46.15
2023-04-25T16:51:44.012Z,46.03
2023-04-25T16:54:10.601Z,46.13
2023-04-25T16:56:37.353Z,47.14
2023-04-25T16:59:03.895Z,47.09
2023-04-25T17:01:31.315Z,46.83
2023-04-25T17:03:58.183Z,46.84
2023-04-25T17:06:25.010Z,46.42
2023-04-25T17:08:51.973Z,46.49
2023-04-25T17:11:20.167Z,47.07
2023-04-25T17:13:46.820Z,47.30
2023-04-25T17:16:16.621Z,46.79
2023-04-25T17:18:44.146Z,47.33
2023-04-25T17:21:10.899Z,47.65
2023-04-25T17:23:37.669Z,48.30
2023-04-25T17:26:04.310Z,48.47
2023-04-25T17:28:31.102Z,47.68
2023-04-25T17:30:57.779Z,47.89
2023-04-25T17:33:27.115Z,47.71
2023-04-25T17:35:54.384Z,46.83
2023-04-25T17:38:21.656Z,46.48
2023-04-25T17:40:48.269Z,47.36
2023-04-25T17:43:14.801Z,46.80
2023-04-25T17:45:41.544Z,47.24
2023-04-25T17:48:08.522Z,46.93
2023-04-25T17:50:35.207Z,47.66
2023-04-25T17:53:05.580Z,47.30
2023-04-25T17:55:32.112Z,47.66
2023-04-25T17:57:58.650Z,48.14
2023-04-25T18:00:25.684Z,48.47
2023-04-25T18:02:52.732Z,47.80
2023-04-25T18:05:19.620Z,47.88
2023-04-25T18:07:46.301Z,48.07
2023-04-25T18:10:14.904Z,48.08
2023-04-25T18:12:41.590Z,48.22
2023-04-25T18:15:09.278Z,48.47
2023-04-25T18:17:45.790Z,49.07
2023-04-25T18:20:17.469Z,49.33
2023-04-25T18:22:45.350Z,49.35
2023-04-25T18:25:13.790Z,50.27
2023-04-25T18:27:41.729Z,49.95
2023-04-25T18:30:10.871Z,50.69
2023-04-25T18:32:38.171Z,50.93
2023-04-25T18:35:05.533Z,51.13
2023-04-25T18:37:32.115Z,51.45
2023-04-25T18:39:58.737Z,51.85
2023-04-25T18:42:25.350Z,51.87
2023-04-25T18:44:52.478Z,51.84
2023-04-25T18:47:19.008Z,51.68
2023-04-25T18:49:45.680Z,52.16
2023-04-25T18:52:15.069Z,51.94
2023-04-25T18:54:42.590Z,52.29
2023-04-25T18:57:09.538Z,51.98
2023-04-25T18:59:36.221Z,52.49
2023-04-25T19:02:04.448Z,52.58
2023-04-25T19:04:31.736Z,52.91
2023-04-25T19:06:58.360Z,53.01
2023-04-25T19:09:25.251Z,52.57
2023-04-25T19:11:52.006Z,52.70
2023-04-25T19:14:18.682Z,52.78
2023-04-25T19:16:45.561Z,52.93
2023-04-25T19:19:12.557Z,53.09
2023-04-25T19:21:39.178Z,53.42
2023-04-25T19:24:07.006Z,53.61
2023-04-25T19:26:33.916Z,53.82
2023-04-25T19:29:09.464Z,54.42
2023-04-25T19:31:37.703Z,54.61
2023-04-25T19:34:05.621Z,55.07
2023-04-25T19:36:32.446Z,55.07
2023-04-25T19:39:03.856Z,56.14
2023-04-25T19:41:31.897Z,56.79
2023-04-25T19:44:00.951Z,56.77
2023-04-25T19:46:27.591Z,57.64
2023-04-25T19:48:54.209Z,57.86
2023-04-25T19:51:21.070Z,57.82
2023-04-25T19:53:47.615Z,58.15
2023-04-25T19:56:14.231Z,58.41
2023-04-25T19:58:40.819Z,57.83
2023-04-25T20:01:07.651Z,58.06
2023-04-25T20:03:34.454Z,57.80
2023-04-25T20:06:01.109Z,57.93
2023-04-25T20:08:27.645Z,58.21
2023-04-25T20:10:54.181Z,57.89
2023-04-25T20:13:20.736Z,58.05
2023-04-25T20:15:47.331Z,58.23
2023-04-25T20:18:14.029Z,58.21
2023-04-25T20:20:40.595Z,58.07
2023-04-25T20:23:07.225Z,58.02
2023-04-25T20:25:33.760Z,58.07
2023-04-25T20:28:00.307Z,58.36
2023-04-25T20:30:26.925Z,58.31
2023-04-25T20:32:53.542Z,58.39
2023-04-25T20:35:22.685Z,58.51
2023-04-25T20:37:50.602Z,58.64
2023-04-25T20:40:17.197Z,58.48
2023-04-25T20:42:43.764Z,59.50
2023-04-25T20:45:13.500Z,59.21
2023-04-25T20:47:41.054Z,59.38
2023-04-25T20:50:08.295Z,59.13
2023-04-25T20:52:35.407Z,59.65
2023-04-25T20:55:02.046Z,60.29
2023-04-25T20:57:29.314Z,60.46
2023-04-25T20:59:57.352Z,61.60
2023-04-25T21:02:24.435Z,62.71
2023-04-25T21:04:51.852Z,62.89
2023-04-25T21:07:18.432Z,63.51
2023-04-25T21:09:45.696Z,64.49
2023-04-25T21:12:12.378Z,64.69
2023-04-25T21:14:38.983Z,64.73
2023-04-25T21:17:05.974Z,65.39
2023-04-25T21:19:33.111Z,65.41
2023-04-25T21:22:00.176Z,64.71
2023-04-25T21:24:27.381Z,65.17
2023-04-25T21:26:53.968Z,65.10
2023-04-25T21:29:20.545Z,65.38
2023-04-25T21:31:47.323Z,65.39
2023-04-25T21:34:13.850Z,65.25
2023-04-25T21:36:41.359Z,65.74
2023-04-25T21:39:08.074Z,65.42
2023-04-25T21:41:34.791Z,65.67
2023-04-25T21:44:01.326Z,65.85
2023-04-25T21:46:27.957Z,66.02
2023-04-25T21:48:54.920Z,66.29
2023-04-25T21:51:22.814Z,66.12
2023-04-25T21:53:49.388Z,66.44
2023-04-25T21:56:16.036Z,66.03
2023-04-25T21:58:42.642Z,66.29
2023-04-25T22:01:10.017Z,66.57
2023-04-25T22:03:36.741Z,66.72
2023-04-25T22:06:04.002Z,67.76
2023-04-25T22:08:30.633Z,67.40
2023-04-25T22:10:57.177Z,67.47
2023-04-25T22:13:23.886Z,67.90
2023-04-25T22:15:50.933Z,67.94
2023-04-25T22:18:18.201Z,68.58
2023-04-25T22:20:44.963Z,68.52
2023-04-25T22:23:12.164Z,68.32
2023-04-25T22:25:38.922Z,69.19
2023-04-25T22:28:05.647Z,69.21
2023-04-25T22:30:32.694Z,69.61
2023-04-25T22:32:59.443Z,69.73
2023-04-25T22:35:26.256Z,69.93
2023-04-25T22:37:53.107Z,70.39
2023-04-25T22:40:19.736Z,70.60
2023-04-25T22:42:46.722Z,70.56
2023-04-25T22:45:13.668Z,71.01
2023-04-25T22:47:40.677Z,71.00
2023-04-25T22:50:13.087Z,71.15
2023-04-25T22:52:40.578Z,71.01
2023-04-25T22:55:07.459Z,71.38
2023-04-25T22:57:38.329Z,71.59
2023-04-25T23:00:15.291Z,71.80
2023-04-25T23:02:46.176Z,71.74
2023-04-25T23:05:13.509Z,72.18
2023-04-25T23:07:44.711Z,72.04
2023-04-25T23:10:12.162Z,72.08
2023-04-25T23:12:40.122Z,72.49
2023-04-25T23:15:07.866Z,72.73
2023-04-25T23:17:35.206Z,72.67
2023-04-25T23:20:01.883Z,72.18
2023-04-25T23:22:28.425Z,72.85
2023-04-25T23:24:55.081Z,72.64
2023-04-25T23:27:21.653Z,72.86
2023-04-25T23:29:54.836Z,72.83
2023-04-25T23:32:22.386Z,72.97
2023-04-25T23:34:49.422Z,73.38
2023-04-25T23:37:16.126Z,73.13
2023-04-25T23:39:49.314Z,72.88
2023-04-25T23:42:16.246Z,73.31
2023-04-25T23:44:42.938Z,73.39
2023-04-25T23:47:09.895Z,73.43
2023-04-25T23:49:36.510Z,73.65
2023-04-25T23:52:05.058Z,73.46
2023-04-25T23:54:31.766Z,74.08
2023-04-25T23:56:58.308Z,74.01
2023-04-25T23:59:24.885Z,74.03
